Latest Weather Observations for Bega

IDN60801

Issued at 3:35 pm EST Thursday 24 April 2014 (issued every 30 minutes, with the page automatically refreshed every 10 minutes)

About weather observations | Map of weather stations | Latest weather observations for NSW | Other Formats
Station Details ID: 069139 Name: BEGA AWS Lat: -36.67 Lon: 149.82 Height: 41.0 m
Data from the previous 72 hours. | See also: Recent months at Bega
Date/Time
EST
Temp
°C
App
Temp
°C
Dew
Point
Rel
Hum
%
Delta-T
°C
Wind Press
QNH
hPa
Press
MSL
hPa
Rain
since 9 am
mm
Dir
 
Spd
km/h
Gust
km/h
Spd
kts
Gust
kts
24/03:30pm 23.9 18.9 4.8 29 9.6 W 20 26 11 14 1011.9 - 0.0
24/03:00pm 24.9 20.1 5.7 29 9.8 W 20 30 11 16 1011.7 1011.6 0.0
24/02:30pm 24.8 19.0 4.5 27 10.1 W 24 35 13 19 1011.2 - 0.0
24/02:00pm 25.0 18.8 4.2 26 10.4 WSW 26 35 14 19 1011.1 - 0.0
24/01:30pm 25.7 21.8 3.6 24 10.9 WNW 13 17 7 9 1010.7 - 0.0
24/01:00pm 25.4 20.0 1.5 21 11.4 WNW 19 28 10 15 1010.5 - 0.0
24/12:30pm 25.0 18.6 1.2 21 11.2 W 24 39 13 21 1010.5 - 0.0
24/12:00pm 24.8 19.8 3.5 25 10.5 W 19 32 10 17 1010.6 1010.5 0.0
24/11:30am 23.4 23.6 14.7 58 5.2 ESE 7 11 4 6 1010.9 - 0.0
24/11:00am 22.0 23.1 16.5 71 3.3 NE 6 7 3 4 1011.3 - 0.0
24/10:30am 19.9 22.1 16.5 81 2.1 CALM 0 4 0 2 1011.5 - 0.0
24/10:00am 17.4 18.5 15.6 89 1.1 ENE 4 7 2 4 1011.6 - 0.0
24/09:30am 15.3 17.0 15.1 99 0.1 CALM 0 6 0 3 1011.7 - 0.0
24/09:00am 13.9 15.1 13.7 99 0.1 CALM 0 0 0 0 1011.7 1011.6 0.0
24/08:30am 13.3 14.3 13.1 99 0.1 CALM 0 0 0 0 1011.4 - 0.0
24/08:00am 13.5 14.2 13.3 99 0.1 NNE 2 7 1 4 1011.0 - 0.0
24/07:30am 12.7 13.1 12.5 99 0.1 E 2 7 1 4 1010.6 - 0.0
24/07:00am 12.6 12.2 12.4 99 0.1 S 6 9 3 5 1010.2 - 0.0
24/06:30am 12.9 13.7 12.7 99 0.1 CALM 0 6 0 3 1010.0 - 0.0
24/06:00am 12.8 13.6 12.6 99 0.1 CALM 0 6 0 3 1009.9 1009.8 0.0
24/05:30am 12.7 13.0 12.2 97 0.3 SW 2 7 1 4 1009.9 - 0.0
24/05:00am 12.8 12.3 12.0 95 0.4 N 6 7 3 4 1009.9 - 0.0
24/04:30am 13.7 14.6 12.8 94 0.5 CALM 0 6 0 3 1009.9 - 0.0
24/04:00am 15.0 16.3 14.2 95 0.5 CALM 0 0 0 0 1010.0 - 0.0
24/03:30am 15.0 15.6 14.2 95 0.5 NNW 4 9 2 5 1010.2 - 0.0
24/03:00am 15.7 17.2 14.7 94 0.6 CALM 0 0 0 0 1010.4 1010.3 0.0
24/02:30am 15.0 14.7 13.4 90 0.9 N 7 15 4 8 1010.8 - 0.0
24/02:00am 14.3 14.8 12.7 90 0.9 WNW 2 7 1 4 1011.0 - 0.0
24/01:30am 14.1 14.1 12.3 89 1.0 NNW 4 7 2 4 1011.4 - 0.0
24/01:00am 13.3 13.0 12.7 96 0.3 SSW 6 7 3 4 1011.5 - 0.0
24/12:30am 14.1 14.7 13.1 94 0.6 N 2 6 1 3 1011.5 - 0.0
24/12:00am 14.1 15.1 13.1 94 0.6 NNE 0 0 0 0 1011.8 1011.7 0.0
 
Date/Time
EST
Temp
°C
App
Temp
°C
Dew
Point
Rel
Hum
%
Delta-T
°C
Wind Press
QNH
hPa
Press
MSL
hPa
Rain
since 9 am
mm
Dir
 
Spd
km/h
Gust
km/h
Spd
kts
Gust
kts
23/11:30pm 14.3 15.2 13.0 92 0.7 CALM 0 0 0 0 1011.9 - 0.0
23/11:00pm 14.4 14.7 13.3 93 0.6 S 4 7 2 4 1012.1 - 0.0
23/10:30pm 14.9 15.6 13.4 91 0.8 SSW 2 6 1 3 1012.3 - 0.0
23/10:00pm 16.3 16.3 13.6 84 1.5 NNW 6 7 3 4 1012.5 - 0.0
23/09:30pm 15.0 16.3 14.0 94 0.6 CALM 0 6 0 3 1012.6 - 0.0
23/09:00pm 14.8 15.2 13.7 93 0.6 S 4 7 2 4 1012.5 1012.4 0.0
23/08:30pm 15.9 17.1 13.9 88 1.1 CALM 0 0 0 0 1012.7 - 0.0
23/08:00pm 16.1 17.5 14.5 90 0.9 CALM 0 0 0 0 1012.8 - 0.0
23/07:30pm 16.6 18.0 14.4 87 1.3 CALM 0 6 0 3 1012.8 - 0.0
23/07:00pm 16.7 18.1 14.3 86 1.4 CALM 0 0 0 0 1012.7 - 0.0
23/06:30pm 17.2 18.6 14.3 83 1.7 CALM 0 0 0 0 1012.4 - 0.0
23/06:00pm 19.2 19.4 14.7 75 2.6 NW 7 11 4 6 1012.2 1012.1 0.0
23/05:30pm 20.1 21.6 14.7 71 3.2 CALM 0 6 0 3 1011.8 - 0.0
23/05:00pm 21.3 22.5 14.9 67 3.8 S 2 7 1 4 1011.4 - 0.0
23/04:30pm 22.1 22.7 15.9 68 3.7 S 7 9 4 5 1011.4 - 0.0
23/04:00pm 21.9 22.4 15.0 65 4.1 E 6 7 3 4 1011.2 - 0.0
23/03:30pm 23.5 24.5 14.2 56 5.5 NE 2 9 1 5 1011.3 - 0.0
23/03:00pm 22.8 23.1 14.9 61 4.7 NE 7 9 4 5 1011.5 1011.4 0.0
23/02:30pm 23.4 21.6 14.4 57 5.3 ENE 17 20 9 11 1011.4 - 0.0
23/02:00pm 23.6 22.7 14.9 58 5.2 NE 13 19 7 10 1011.6 - 0.0
23/01:30pm 23.3 21.3 12.6 51 6.1 N 15 20 8 11 1012.0 - 0.0
23/01:00pm 23.4 23.1 15.5 61 4.8 NE 11 17 6 9 1012.5 - 0.0
23/12:30pm 21.2 21.5 16.0 72 3.1 SE 9 9 5 5 1013.4 - 0.0
23/12:00pm 20.4 21.4 16.4 78 2.4 NNE 6 7 3 4 1014.0 1013.9 0.0
23/11:30am 17.8 18.3 14.9 83 1.7 S 6 9 3 5 1014.8 - 0.0
23/11:00am 18.6 19.4 15.8 84 1.7 NE 6 9 3 5 1015.3 - 0.0
23/10:30am 16.8 17.5 14.4 86 1.4 N 4 9 2 5 1015.7 - 0.0
23/10:00am 15.4 16.0 14.3 93 0.6 SE 4 7 2 4 1016.4 - 0.0
23/09:30am 14.5 15.7 13.7 95 0.4 CALM 0 0 0 0 1016.8 - 0.0
23/09:00am 14.5 15.4 14.0 97 0.3 WNW 2 9 1 5 1016.9 1016.9 0.4
23/08:30am 13.9 13.5 13.1 95 0.4 NNW 7 9 4 5 1017.5 - 0.0
23/08:00am 13.0 13.5 12.7 98 0.2 NE 2 7 1 4 1017.6 - 0.0
23/07:30am 12.8 13.6 12.5 98 0.2 CALM 0 0 0 0 1017.8 - 0.0
23/07:00am 12.5 13.1 12.0 97 0.3 CALM 0 0 0 0 1017.4 - 0.0
23/06:30am 12.3 12.9 11.8 97 0.3 CALM 0 0 0 0 1017.0 - 0.0
23/06:00am 12.4 12.7 12.1 98 0.2 N 2 7 1 4 1017.0 1017.0 0.0
23/05:30am 12.3 12.9 12.0 98 0.2 CALM 0 0 0 0 1016.8 - 0.0
23/05:00am 12.1 11.9 11.8 98 0.2 SSW 4 7 2 4 1017.0 - 0.0
23/04:30am 11.4 11.0 11.2 99 0.1 NW 4 6 2 3 1016.6 - 0.0
23/04:00am 11.3 10.3 11.0 98 0.2 SSE 7 9 4 5 1016.7 - 0.0
23/03:30am 12.0 12.4 11.4 96 0.3 CALM 0 0 0 0 1016.4 - 0.0
23/03:00am 11.9 11.0 11.4 97 0.3 N 7 9 4 5 1016.5 1016.5 0.0
23/02:30am 11.9 12.0 11.4 97 0.3 SSW 2 6 1 3 1016.8 - 0.0
23/02:00am 11.6 10.9 11.3 98 0.2 SSW 6 7 3 4 1017.0 - 0.0
23/01:30am 12.0 12.1 11.4 96 0.3 W 2 6 1 3 1016.9 - 0.0
23/01:00am 11.6 11.9 11.0 96 0.3 CALM 0 7 0 4 1016.8 - 0.0
23/12:30am 11.9 12.3 11.1 95 0.4 CALM 0 0 0 0 1016.9 - 0.0
23/12:00am 12.4 12.8 11.3 93 0.6 CALM 0 0 0 0 1016.9 1016.9 0.0
 
Date/Time
EST
Temp
°C
App
Temp
°C
Dew
Point
Rel
Hum
%
Delta-T
°C
Wind Press
QNH
hPa
Press
MSL
hPa
Rain
since 9 am
mm
Dir
 
Spd
km/h
Gust
km/h
Spd
kts
Gust
kts
22/11:30pm 11.9 12.3 11.3 96 0.3 CALM 0 0 0 0 1016.6 - 0.0
22/11:00pm 11.2 11.4 10.6 96 0.3 CALM 0 0 0 0 1016.5 - 0.0
22/10:30pm 12.3 12.8 11.5 95 0.4 CALM 0 0 0 0 1016.7 - 0.0
22/10:00pm 11.9 12.3 11.1 95 0.4 CALM 0 0 0 0 1016.6 - 0.0
22/09:30pm 11.9 11.7 10.3 90 0.8 NNE 2 7 1 4 1016.6 - 0.0
22/09:00pm 13.3 13.9 11.9 91 0.7 CALM 0 0 0 0 1016.6 1016.6 0.0
22/08:30pm 13.4 13.7 12.1 92 0.7 SSW 2 7 1 4 1016.2 - 0.0
22/08:00pm 13.2 13.0 11.8 91 0.7 S 4 9 2 5 1016.0 - 0.0
22/07:30pm 14.9 15.8 12.8 87 1.2 CALM 0 0 0 0 1015.9 - 0.0
22/07:00pm 15.4 16.1 12.2 81 1.7 CALM 0 0 0 0 1015.8 - 0.0
22/06:30pm 17.0 17.0 12.5 75 2.5 W 4 9 2 5 1015.6 - 0.0
22/06:00pm 17.7 18.5 12.6 72 2.8 CALM 0 2 0 1 1015.3 1015.3 0.0
22/05:30pm 18.0 17.6 12.9 72 2.9 NW 7 9 4 5 1015.0 - 0.0
22/05:00pm 18.4 17.5 12.6 69 3.2 NNE 9 9 5 5 1014.8 - 0.0
22/04:30pm 19.4 19.5 12.7 65 3.8 N 4 7 2 4 1014.9 - 0.0
22/04:00pm 19.4 18.5 12.7 65 3.8 N 9 13 5 7 1014.5 - 0.0
22/03:30pm 20.4 20.1 11.6 57 4.9 W 4 7 2 4 1014.8 - 0.0
22/03:00pm 20.6 20.7 12.6 60 4.5 E 4 9 2 5 1014.4 1014.3 0.0
22/02:30pm 20.4 17.7 11.6 57 4.9 ESE 17 26 9 14 1014.2 - 0.0
22/02:00pm 20.6 18.6 13.8 65 3.9 SSE 17 24 9 13 1013.9 - 0.0
22/01:30pm 21.3 19.1 14.5 65 4.0 SE 19 26 10 14 1013.6 - 0.0
22/01:00pm 21.7 22.0 15.1 66 3.9 SSE 7 9 4 5 1013.5 - 0.0
22/12:30pm 20.7 21.5 15.9 74 2.9 SSW 6 9 3 5 1013.7 - 0.0
22/12:00pm 19.6 20.9 14.2 71 3.1 CALM 0 0 0 0 1014.0 1013.9 0.0
22/11:30am 19.3 19.8 14.1 72 3.0 ESE 4 7 2 4 1014.5 - 0.0
22/11:00am 18.0 18.0 14.1 78 2.2 S 7 11 4 6 1015.0 - 0.0
22/10:30am 16.6 16.7 13.9 84 1.5 S 6 7 3 4 1015.3 - 0.0
22/10:00am 15.0 15.3 12.3 84 1.5 S 2 7 1 4 1015.7 - 0.0
22/09:30am 13.7 14.3 11.9 89 1.0 CALM 0 0 0 0 1016.1 - 0.0
22/09:00am 13.0 13.4 11.4 90 0.8 CALM 0 0 0 0 1016.3 1016.3 0.0
22/08:30am 11.9 11.9 11.0 94 0.5 NE 2 7 1 4 1016.4 - 0.0
22/08:00am 10.9 11.1 10.7 99 0.1 CALM 0 0 0 0 1016.3 - 0.0
22/07:30am 9.5 8.3 9.4 99 0.0 N 6 7 3 4 1016.2 - 0.0
22/07:00am 8.4 8.0 8.3 99 0.0 CALM 0 0 0 0 1016.0 - 0.0
22/06:30am 8.5 8.1 8.4 99 0.0 CALM 0 0 0 0 1015.7 - 0.0
22/06:00am 8.2 7.7 7.9 98 0.1 CALM 0 0 0 0 1015.7 1015.7 0.0
22/05:30am 8.1 7.6 7.8 98 0.1 CALM 0 0 0 0 1015.8 - 0.0
22/05:00am 8.6 7.5 8.5 99 0.0 SSW 4 7 2 4 1015.9 - 0.0
22/04:30am 8.2 6.4 7.9 98 0.1 S 7 9 4 5 1015.9 - 0.0
22/04:00am 8.5 8.1 8.1 97 0.2 CALM 0 0 0 0 1016.1 - 0.0
22/03:30am 9.3 8.0 9.2 99 0.0 NW 6 7 3 4 1015.9 - 0.0
22/03:00am 8.6 8.2 8.2 97 0.2 CALM 0 0 0 0 1016.2 1016.2 0.0
22/02:30am 9.0 8.6 8.4 96 0.3 CALM 0 0 0 0 1016.4 - 0.0
22/02:00am 9.8 9.6 9.2 96 0.3 CALM 0 0 0 0 1016.6 - 0.0
22/01:30am 9.9 9.4 9.3 96 0.3 WSW 2 6 1 3 1016.8 - 0.0
22/01:00am 10.0 8.7 9.2 95 0.4 SSW 6 9 3 5 1017.3 - 0.0
22/12:30am 10.8 9.7 9.9 94 0.5 SW 6 7 3 4 1017.5 - 0.0
22/12:00am 11.3 11.4 10.2 93 0.6 CALM 0 0 0 0 1017.8 1017.7 0.0
 
Date/Time
EST
Temp
°C
App
Temp
°C
Dew
Point
Rel
Hum
%
Delta-T
°C
Wind Press
QNH
hPa
Press
MSL
hPa
Rain
since 9 am
mm
Dir
 
Spd
km/h
Gust
km/h
Spd
kts
Gust
kts
21/11:30pm 11.5 11.6 10.1 91 0.7 CALM 0 0 0 0 1018.0 - 0.0
21/11:00pm 11.5 10.5 10.2 92 0.7 SW 6 7 3 4 1018.2 - 0.0
21/10:30pm 12.2 11.7 10.8 91 0.7 SSW 4 9 2 5 1018.4 - 0.0
21/10:00pm 11.8 12.0 10.5 92 0.7 CALM 0 0 0 0 1018.7 - 0.0
21/09:30pm 12.6 12.8 10.7 88 1.0 CALM 0 0 0 0 1018.8 - 0.0
21/09:00pm 13.4 13.7 10.8 84 1.4 CALM 0 0 0 0 1019.0 1018.9 0.0
21/08:30pm 14.5 14.8 10.9 79 1.9 CALM 0 0 0 0 1018.9 - 0.0
21/08:00pm 14.0 14.2 10.6 80 1.8 CALM 0 0 0 0 1018.8 - 0.0
21/07:30pm 15.2 13.8 11.0 76 2.2 NNW 9 13 5 7 1018.9 - 0.0
21/07:00pm 15.5 14.7 11.1 75 2.4 N 6 13 3 7 1018.8 - 0.0
21/06:30pm 16.0 15.1 11.2 73 2.6 N 7 9 4 5 1018.7 - 0.0
21/06:00pm 16.2 16.1 10.7 70 2.9 N 2 7 1 4 1018.5 1018.4 0.0
21/05:30pm 16.6 16.0 10.5 67 3.2 N 4 6 2 3 1018.4 - 0.0
21/05:00pm 16.9 16.0 10.5 66 3.4 NNE 6 7 3 4 1018.3 - 0.0
21/04:30pm 17.2 15.3 10.6 65 3.5 NE 11 13 6 7 1018.3 - 0.0
21/04:00pm 17.6 14.8 10.0 61 4.0 NE 15 20 8 11 1018.4 - 0.0

Other Formats:

Comma delimited format used in spreadsheet applications
http://www.bom.gov.au/fwo/IDN60801/IDN60801.95931.axf

JavaScript Object Notation format (JSON) in row-major order
http://www.bom.gov.au/fwo/IDN60801/IDN60801.95931.json